DAAS

Ain Arnat Airport

Sétif, Algeria
METAR DAAS 140000Z 24005KT 9999 FEW010 SCT026 05/04 Q1009
Observed Flight Rules
Dec-14 @ 00:00 UTC (43 minutes ago) Visual Flight Rules
Wind Visibility Clouds
240° at 5 knots 10,000+ meters
  • Few at 1,000' AGL
  • Scattered at 2,600' AGL
Temperatures Readings
Current 5°C / 41°F
Dewpoint 4°C / 39°F
Humidity 93%
Altimeter 29.79" Hg
Pressure 1009 hPa
Elevation 1038
METAR DAAS 140000Z 24005KT 9999 FEW010 SCT026 05/04 Q1009
Observed Flight Rules
Dec-14 @ 00:00 UTC
(43 minutes ago)
VFR
Wind Visibility
240° at 5 knots 10,000+ meters
Clouds
  • Few at 1,000' AGL
  • Scattered at 2,600' AGL
Temperature Dewpoint
5°C / 41°F 4°C / 39°F
Humidity Altimeter Pressure
93% 29.79" Hg 1009 hPa